createdAt,value
2019-03-25T00:02:11.138Z,2.43
2019-03-25T00:04:41.125Z,2.67
2019-03-25T00:07:11.132Z,2.63
2019-03-25T00:09:41.158Z,2.50
2019-03-25T00:12:10.925Z,2.83
2019-03-25T00:14:40.889Z,2.90
2019-03-25T00:17:10.651Z,2.93
2019-03-25T00:19:40.408Z,2.87
2019-03-25T00:22:10.202Z,3.30
2019-03-25T00:24:39.888Z,2.83
2019-03-25T00:27:09.837Z,2.30
2019-03-25T00:29:39.449Z,2.80
2019-03-25T00:32:09.255Z,2.47
2019-03-25T00:34:39.180Z,3.27
2019-03-25T00:37:08.878Z,2.97
2019-03-25T00:39:38.493Z,2.90
2019-03-25T00:42:08.181Z,3.10
2019-03-25T00:44:37.808Z,2.77
2019-03-25T00:47:07.497Z,2.60
2019-03-25T00:49:37.201Z,2.83
2019-03-25T00:52:06.951Z,2.70
2019-03-25T00:54:36.750Z,2.83
2019-03-25T00:57:06.869Z,2.37
2019-03-25T00:59:36.561Z,2.90
2019-03-25T01:02:06.593Z,2.90
2019-03-25T01:04:36.606Z,2.70
2019-03-25T01:07:06.735Z,2.63
2019-03-25T01:09:36.493Z,2.10
2019-03-25T01:12:06.553Z,2.57
2019-03-25T01:14:36.249Z,2.97
2019-03-25T01:17:05.977Z,2.80
2019-03-25T01:19:35.583Z,2.70
2019-03-25T01:22:05.610Z,2.73
2019-03-25T01:24:35.289Z,2.97
2019-03-25T01:27:05.015Z,2.73
2019-03-25T01:29:34.613Z,2.60
2019-03-25T01:32:04.313Z,2.80
2019-03-25T01:34:33.978Z,3.00
2019-03-25T01:37:03.694Z,2.90
2019-03-25T01:39:33.418Z,2.47
2019-03-25T01:42:03.168Z,2.50
2019-03-25T01:44:32.787Z,2.90
2019-03-25T01:47:02.482Z,2.93
2019-03-25T01:49:32.256Z,2.63
2019-03-25T01:52:01.933Z,2.73
2019-03-25T01:54:31.557Z,2.70
2019-03-25T01:57:01.171Z,2.53
2019-03-25T01:59:31.249Z,2.80
2019-03-25T02:02:01.362Z,2.70
2019-03-25T02:04:31.001Z,2.70
2019-03-25T02:07:00.753Z,2.60
2019-03-25T02:09:30.455Z,2.80
2019-03-25T02:12:00.166Z,3.10
2019-03-25T02:14:30.157Z,2.70
2019-03-25T02:16:59.761Z,2.30
2019-03-25T02:19:29.437Z,2.70
2019-03-25T02:21:59.139Z,2.70
2019-03-25T02:24:28.731Z,3.07
2019-03-25T02:26:58.418Z,2.60
2019-03-25T02:29:28.057Z,3.10
2019-03-25T02:31:57.688Z,2.97
2019-03-25T02:34:27.330Z,3.00
2019-03-25T02:36:57.095Z,2.80
2019-03-25T02:39:26.725Z,2.77
2019-03-25T02:41:56.361Z,2.40
2019-03-25T02:44:25.988Z,2.50
2019-03-25T02:46:55.940Z,2.50
2019-03-25T02:49:25.566Z,2.87
2019-03-25T02:51:55.511Z,2.57
2019-03-25T02:54:25.185Z,2.43
2019-03-25T02:56:54.837Z,2.10
2019-03-25T02:59:24.465Z,2.80
2019-03-25T03:01:54.396Z,2.50
2019-03-25T03:04:24.134Z,2.67
2019-03-25T03:06:53.853Z,2.70
2019-03-25T03:09:23.618Z,2.53
2019-03-25T03:11:53.316Z,2.53
2019-03-25T03:14:23.059Z,2.50
2019-03-25T03:16:52.812Z,2.57
2019-03-25T03:19:22.594Z,2.50
2019-03-25T03:21:52.336Z,3.10
2019-03-25T03:24:22.125Z,2.17
2019-03-25T03:26:51.869Z,2.27
2019-03-25T03:29:21.647Z,2.27
2019-03-25T03:31:51.380Z,2.57
2019-03-25T03:34:21.013Z,2.73
2019-03-25T03:36:50.676Z,2.80
2019-03-25T03:39:20.367Z,2.50
2019-03-25T03:41:50.070Z,2.77
2019-03-25T03:44:19.731Z,2.90
2019-03-25T03:46:49.507Z,2.63
2019-03-25T03:49:19.455Z,3.10
2019-03-25T03:51:49.923Z,2.40
2019-03-25T03:54:19.817Z,2.53
2019-03-25T03:56:51.179Z,2.47
2019-03-25T03:59:20.944Z,2.17
2019-03-25T04:01:50.564Z,2.73
2019-03-25T04:04:20.366Z,2.57
2019-03-25T04:06:50.139Z,2.30
2019-03-25T04:09:20.245Z,2.30
2019-03-25T04:11:50.006Z,2.80
2019-03-25T04:14:19.769Z,2.33
2019-03-25T04:16:49.484Z,2.47
2019-03-25T04:19:19.169Z,2.47
2019-03-25T04:21:48.879Z,2.37
2019-03-25T04:24:18.615Z,2.80
2019-03-25T04:26:48.410Z,2.60
2019-03-25T04:29:18.139Z,2.60
2019-03-25T04:32:07.255Z,2.47
2019-03-25T04:34:36.838Z,2.60
2019-03-25T04:37:06.563Z,2.60
2019-03-25T04:39:36.169Z,2.57
2019-03-25T04:42:05.884Z,2.73
2019-03-25T04:44:35.503Z,2.70
2019-03-25T04:47:05.209Z,2.50
2019-03-25T04:49:34.914Z,2.50
2019-03-25T04:52:04.579Z,2.60
2019-03-25T04:54:34.291Z,2.30
2019-03-25T04:57:04.015Z,2.80
2019-03-25T04:59:34.003Z,2.60
2019-03-25T05:02:03.684Z,2.43
2019-03-25T05:04:33.316Z,2.57
2019-03-25T05:07:03.028Z,2.20
2019-03-25T05:09:32.786Z,2.70
2019-03-25T05:12:02.463Z,2.40
2019-03-25T05:14:32.208Z,2.60
2019-03-25T05:17:01.844Z,2.60
2019-03-25T05:19:31.614Z,2.20
2019-03-25T05:22:01.256Z,2.40
2019-03-25T05:24:30.958Z,2.60
2019-03-25T05:27:00.659Z,2.70
2019-03-25T05:29:30.287Z,2.87
2019-03-25T05:32:00.026Z,2.60
2019-03-25T05:34:30.043Z,2.50
2019-03-25T05:36:59.786Z,2.70
2019-03-25T05:39:29.592Z,2.70
2019-03-25T05:41:59.298Z,2.77
2019-03-25T05:44:29.185Z,2.50
2019-03-25T05:46:59.194Z,2.70
2019-03-25T05:49:29.115Z,2.43
2019-03-25T05:51:58.747Z,2.97
2019-03-25T05:54:28.386Z,2.60
2019-03-25T05:57:02.638Z,2.60
2019-03-25T05:59:29.330Z,2.50
2019-03-25T06:01:58.961Z,2.80
2019-03-25T06:04:28.902Z,3.20
2019-03-25T06:06:58.533Z,2.60
2019-03-25T06:09:28.155Z,2.53
2019-03-25T06:11:57.773Z,2.50
2019-03-25T06:14:27.539Z,2.80
2019-03-25T06:16:57.169Z,2.53
2019-03-25T06:19:26.889Z,3.20
2019-03-25T06:21:56.567Z,2.37
2019-03-25T06:24:26.263Z,2.20
2019-03-25T06:26:56.165Z,2.20
2019-03-25T06:29:26.027Z,3.00
2019-03-25T06:31:55.862Z,2.27
2019-03-25T06:34:25.746Z,2.43
2019-03-25T06:36:55.448Z,2.50
2019-03-25T06:39:25.115Z,2.60
2019-03-25T06:41:54.797Z,2.33
2019-03-25T06:44:24.612Z,2.47
2019-03-25T06:46:54.309Z,2.17
2019-03-25T06:49:24.024Z,2.17
2019-03-25T06:51:53.759Z,2.00
2019-03-25T06:54:43.174Z,2.37
2019-03-25T06:57:12.863Z,2.03
2019-03-25T06:59:42.637Z,1.93
2019-03-25T07:02:12.430Z,2.33
2019-03-25T07:04:42.555Z,1.50
2019-03-25T07:07:12.306Z,2.00
2019-03-25T07:09:42.127Z,2.00
2019-03-25T07:12:12.079Z,2.00
2019-03-25T07:14:41.839Z,1.80
2019-03-25T07:17:11.791Z,1.87
2019-03-25T07:19:41.471Z,2.00
2019-03-25T07:22:11.252Z,1.70
2019-03-25T07:24:40.881Z,1.80
2019-03-25T07:27:10.569Z,1.80
2019-03-25T07:29:40.157Z,2.23
2019-03-25T07:32:09.867Z,1.80
2019-03-25T07:34:41.296Z,1.90
2019-03-25T07:37:11.049Z,1.63
2019-03-25T07:39:40.736Z,1.70
2019-03-25T07:42:10.438Z,1.73
2019-03-25T07:44:40.110Z,2.07
2019-03-25T07:47:09.807Z,1.60
2019-03-25T07:49:39.961Z,1.87
2019-03-25T07:52:09.697Z,1.60
2019-03-25T07:54:39.417Z,2.00
2019-03-25T07:57:11.659Z,1.50
2019-03-25T07:59:40.730Z,1.33
2019-03-25T08:02:10.465Z,1.57
2019-03-25T08:04:40.147Z,1.50
2019-03-25T08:07:09.818Z,1.70
2019-03-25T08:09:39.525Z,1.70
2019-03-25T08:12:09.258Z,1.60
2019-03-25T08:14:38.857Z,1.90
2019-03-25T08:17:08.553Z,1.83
2019-03-25T08:19:38.233Z,1.70
2019-03-25T08:22:07.949Z,1.77
2019-03-25T08:24:37.579Z,1.80
2019-03-25T08:27:07.355Z,1.57
2019-03-25T08:29:36.950Z,1.63
2019-03-25T08:32:06.759Z,1.50
2019-03-25T08:34:36.449Z,1.40
2019-03-25T08:37:07.005Z,1.47
2019-03-25T08:39:36.797Z,1.40
2019-03-25T08:42:25.806Z,1.47
2019-03-25T08:44:55.496Z,1.50
2019-03-25T08:47:25.240Z,1.27
2019-03-25T08:49:54.989Z,1.40
2019-03-25T08:52:24.750Z,1.33
2019-03-25T08:54:54.425Z,1.30
2019-03-25T08:57:24.231Z,1.40
2019-03-25T08:59:54.163Z,1.50
2019-03-25T09:02:23.950Z,1.40
2019-03-25T09:04:53.739Z,1.10
2019-03-25T09:07:23.512Z,1.30
2019-03-25T09:09:53.229Z,1.20
2019-03-25T09:12:23.317Z,1.37
2019-03-25T09:14:53.084Z,1.10
2019-03-25T09:17:22.768Z,1.40
2019-03-25T09:19:52.567Z,1.30
2019-03-25T09:22:22.339Z,1.27
2019-03-25T09:24:52.258Z,1.20
2019-03-25T09:27:22.015Z,1.10
2019-03-25T09:29:51.705Z,1.00
2019-03-25T09:32:21.737Z,1.53
2019-03-25T09:34:51.547Z,1.23
2019-03-25T09:37:21.316Z,1.27
2019-03-25T09:39:50.996Z,1.30
2019-03-25T09:42:21.063Z,1.43
2019-03-25T09:44:51.180Z,1.07
2019-03-25T09:47:20.870Z,1.37
2019-03-25T09:49:50.542Z,1.00
2019-03-25T09:52:20.335Z,1.00
2019-03-25T09:54:50.021Z,1.20
2019-03-25T09:57:19.809Z,1.20
2019-03-25T09:59:49.549Z,1.20
2019-03-25T10:02:19.277Z,1.37
2019-03-25T10:04:48.949Z,1.27
2019-03-25T10:07:23.369Z,1.10
2019-03-25T10:09:53.126Z,1.03
2019-03-25T10:12:22.892Z,1.10
2019-03-25T10:14:52.562Z,1.23
2019-03-25T10:17:22.646Z,0.90
2019-03-25T10:19:52.413Z,1.40
2019-03-25T10:22:22.031Z,1.30
2019-03-25T10:24:52.165Z,1.00
2019-03-25T10:27:22.219Z,1.20
2019-03-25T10:29:52.020Z,1.20
2019-03-25T10:32:22.013Z,1.20
2019-03-25T10:34:51.783Z,1.00
2019-03-25T10:37:22.234Z,1.20
2019-03-25T10:39:52.022Z,1.10
2019-03-25T10:42:21.690Z,1.03
2019-03-25T10:44:51.741Z,1.23
2019-03-25T10:47:21.486Z,1.13
2019-03-25T10:49:51.228Z,1.07
2019-03-25T10:52:20.923Z,0.90
2019-03-25T10:54:50.744Z,1.40
2019-03-25T10:57:20.562Z,1.27
2019-03-25T10:59:50.313Z,1.30
2019-03-25T11:02:20.103Z,1.00
2019-03-25T11:04:49.720Z,1.13
2019-03-25T11:07:19.564Z,1.10
2019-03-25T11:09:49.334Z,1.23
2019-03-25T11:12:19.134Z,1.10
2019-03-25T11:14:49.131Z,1.10
2019-03-25T11:17:18.919Z,1.03
2019-03-25T11:19:48.950Z,1.00
2019-03-25T11:22:18.739Z,1.23
2019-03-25T11:24:48.470Z,1.17
2019-03-25T11:27:18.113Z,1.00
2019-03-25T11:29:47.781Z,1.10
2019-03-25T11:32:17.428Z,1.10
2019-03-25T11:34:47.516Z,1.00
2019-03-25T11:37:17.237Z,1.20
2019-03-25T11:39:47.350Z,1.30
2019-03-25T11:42:17.042Z,1.00
2019-03-25T11:44:46.789Z,1.03
2019-03-25T11:47:16.513Z,1.27
2019-03-25T11:49:46.264Z,1.10
2019-03-25T11:52:17.256Z,1.00
2019-03-25T11:54:47.111Z,1.20
2019-03-25T11:57:16.803Z,1.17
2019-03-25T11:59:46.429Z,1.10
2019-03-25T12:02:17.862Z,1.10
2019-03-25T12:04:47.706Z,1.13
2019-03-25T12:07:17.466Z,1.30
2019-03-25T12:09:47.214Z,1.10
2019-03-25T12:12:16.867Z,1.07
2019-03-25T12:14:46.429Z,1.37
2019-03-25T12:17:16.102Z,1.30
2019-03-25T12:19:45.803Z,1.20
2019-03-25T12:22:15.569Z,1.10
2019-03-25T12:24:45.299Z,1.20
2019-03-25T12:27:15.350Z,1.00
2019-03-25T12:29:45.085Z,1.50
2019-03-25T12:32:34.392Z,1.17
2019-03-25T12:35:06.487Z,1.30
2019-03-25T12:37:36.041Z,1.10
2019-03-25T12:40:07.889Z,1.10
2019-03-25T12:42:37.333Z,1.20
2019-03-25T12:45:28.526Z,0.90
2019-03-25T12:47:58.323Z,1.20
2019-03-25T12:50:27.955Z,0.93
2019-03-25T12:52:57.631Z,1.00
2019-03-25T12:55:27.335Z,1.00
2019-03-25T12:57:57.120Z,0.90
2019-03-25T13:00:40.837Z,1.00
2019-03-25T13:03:10.507Z,1.30
2019-03-25T13:05:40.325Z,1.10
2019-03-25T13:08:10.073Z,1.20
2019-03-25T13:10:39.877Z,1.17
2019-03-25T13:13:09.562Z,1.10
2019-03-25T13:15:39.315Z,1.23
2019-03-25T13:18:09.019Z,1.13
2019-03-25T13:20:38.773Z,1.20
2019-03-25T13:23:08.832Z,1.20
2019-03-25T13:25:39.644Z,0.97
2019-03-25T13:28:09.427Z,1.10
2019-03-25T13:30:39.110Z,1.20
2019-03-25T13:33:08.797Z,1.10
2019-03-25T13:35:38.577Z,0.97
2019-03-25T13:38:08.198Z,0.90
2019-03-25T13:40:39.177Z,0.90
2019-03-25T13:43:08.788Z,1.03
2019-03-25T13:45:38.487Z,0.90
2019-03-25T13:48:08.256Z,1.00
2019-03-25T13:50:37.975Z,0.80
2019-03-25T13:53:07.717Z,1.00
2019-03-25T13:55:37.423Z,1.00
2019-03-25T13:58:07.430Z,0.67
2019-03-25T14:00:38.640Z,0.73
2019-03-25T14:03:08.301Z,0.60
2019-03-25T14:05:38.003Z,0.90
2019-03-25T14:08:08.108Z,0.80
2019-03-25T14:10:38.074Z,0.70
2019-03-25T14:13:07.857Z,0.80
2019-03-25T14:15:37.565Z,0.90
2019-03-25T14:18:07.443Z,0.77
2019-03-25T14:20:37.281Z,0.80
2019-03-25T14:23:07.023Z,0.70
2019-03-25T14:25:36.641Z,0.73
2019-03-25T14:28:06.404Z,0.80
2019-03-25T14:30:36.151Z,1.00
2019-03-25T14:33:05.942Z,0.80
2019-03-25T14:35:35.594Z,0.90
2019-03-25T14:38:05.409Z,0.80
2019-03-25T14:40:35.140Z,0.57
2019-03-25T14:43:04.919Z,0.83
2019-03-25T14:45:34.537Z,0.90
2019-03-25T14:48:04.650Z,0.90
2019-03-25T14:50:34.316Z,1.00
2019-03-25T14:53:04.079Z,1.10
2019-03-25T14:55:33.857Z,1.10
2019-03-25T14:58:03.562Z,1.00
2019-03-25T15:00:33.551Z,0.90
2019-03-25T15:03:03.290Z,0.80
2019-03-25T15:05:33.275Z,1.20
2019-03-25T15:08:03.062Z,0.90
2019-03-25T15:10:33.319Z,0.90
2019-03-25T15:13:03.148Z,0.90
2019-03-25T15:15:33.001Z,1.00
2019-03-25T15:18:02.625Z,1.00
2019-03-25T15:20:32.320Z,0.80
2019-03-25T15:23:02.049Z,0.90
2019-03-25T15:25:31.751Z,0.90
2019-03-25T15:28:01.432Z,0.80
2019-03-25T15:30:35.882Z,1.00
2019-03-25T15:33:02.652Z,1.17
2019-03-25T15:35:32.574Z,0.90
2019-03-25T15:38:02.305Z,0.93
2019-03-25T15:40:32.179Z,1.00
2019-03-25T15:43:21.250Z,0.80
2019-03-25T15:45:52.090Z,0.80
2019-03-25T15:48:22.009Z,0.90
2019-03-25T15:50:51.699Z,0.80
2019-03-25T15:53:21.410Z,0.87
2019-03-25T15:55:51.046Z,0.80
2019-03-25T15:58:25.912Z,1.07
2019-03-25T16:00:52.597Z,1.00
2019-03-25T16:03:22.387Z,1.00
2019-03-25T16:05:52.079Z,1.00
2019-03-25T16:08:21.878Z,0.93
2019-03-25T16:10:51.868Z,0.90
2019-03-25T16:13:21.954Z,0.80
2019-03-25T16:15:51.804Z,0.80
2019-03-25T16:18:38.522Z,0.87
2019-03-25T16:21:08.319Z,0.93
2019-03-25T16:23:38.357Z,0.80
2019-03-25T16:26:08.428Z,0.80
2019-03-25T16:28:38.211Z,1.00
2019-03-25T16:31:27.300Z,0.80
2019-03-25T16:33:56.966Z,1.00
2019-03-25T16:36:26.671Z,0.93
2019-03-25T16:38:56.417Z,1.10
2019-03-25T16:41:26.067Z,0.90
2019-03-25T16:43:56.152Z,0.80
2019-03-25T16:46:25.971Z,0.93
2019-03-25T16:48:55.775Z,0.93
2019-03-25T16:51:25.559Z,1.10
2019-03-25T16:53:55.724Z,1.10
2019-03-25T16:56:25.432Z,1.00
2019-03-25T16:58:55.209Z,1.00
2019-03-25T17:01:24.908Z,1.27
2019-03-25T17:03:54.691Z,1.40
2019-03-25T17:06:24.478Z,1.30
2019-03-25T17:08:54.224Z,1.13
2019-03-25T17:11:23.932Z,1.30
2019-03-25T17:13:53.570Z,1.00
2019-03-25T17:16:23.289Z,1.13
2019-03-25T17:18:53.048Z,1.43
2019-03-25T17:21:22.890Z,1.40
2019-03-25T17:23:52.589Z,1.10
2019-03-25T17:26:22.350Z,1.27
2019-03-25T17:28:52.045Z,1.20
2019-03-25T17:31:21.683Z,1.00
2019-03-25T17:33:51.431Z,1.30
2019-03-25T17:36:21.183Z,1.27
2019-03-25T17:38:50.865Z,1.20
2019-03-25T17:41:20.553Z,1.13
2019-03-25T17:43:50.513Z,1.17
2019-03-25T17:46:20.200Z,1.20
2019-03-25T17:48:50.016Z,1.33
2019-03-25T17:51:19.778Z,1.30
2019-03-25T17:53:49.594Z,1.30
2019-03-25T17:56:19.322Z,1.37
2019-03-25T17:58:49.015Z,1.40
2019-03-25T18:01:19.823Z,1.40
2019-03-25T18:03:49.684Z,1.30
2019-03-25T18:06:39.093Z,1.50
2019-03-25T18:09:09.347Z,1.40
2019-03-25T18:11:39.120Z,1.60
2019-03-25T18:14:09.005Z,1.20
2019-03-25T18:16:58.059Z,1.60
2019-03-25T18:19:28.026Z,1.30
2019-03-25T18:21:57.796Z,1.53
2019-03-25T18:24:27.610Z,1.40
2019-03-25T18:26:57.327Z,1.17
2019-03-25T18:29:27.016Z,1.40
2019-03-25T18:31:56.768Z,1.50
2019-03-25T18:34:26.513Z,1.40
2019-03-25T18:36:56.193Z,1.50
2019-03-25T18:39:26.183Z,1.20
2019-03-25T18:41:56.296Z,1.50
2019-03-25T18:44:26.261Z,1.20
2019-03-25T18:46:56.115Z,1.47
2019-03-25T18:49:25.910Z,1.40
2019-03-25T18:51:55.646Z,1.27
2019-03-25T18:54:25.340Z,1.27
2019-03-25T18:56:55.087Z,1.37
2019-03-25T18:59:25.127Z,1.30
2019-03-25T19:01:55.037Z,1.37
2019-03-25T19:04:27.225Z,1.43
2019-03-25T19:06:56.743Z,1.30
2019-03-25T19:09:26.505Z,1.20
2019-03-25T19:11:56.570Z,1.00
2019-03-25T19:14:26.226Z,1.30
2019-03-25T19:16:56.017Z,1.33
2019-03-25T19:19:25.679Z,1.47
2019-03-25T19:21:55.389Z,1.40
2019-03-25T19:24:25.062Z,1.30
2019-03-25T19:26:55.141Z,1.10
2019-03-25T19:29:24.734Z,1.20
2019-03-25T19:32:05.862Z,1.13
2019-03-25T19:34:25.895Z,1.00
2019-03-25T19:36:55.895Z,1.20
2019-03-25T19:39:27.118Z,1.50
2019-03-25T19:41:59.831Z,1.30
2019-03-25T19:44:30.069Z,1.20
2019-03-25T19:46:59.882Z,1.80
2019-03-25T19:49:29.700Z,1.67
2019-03-25T19:51:59.461Z,1.20
2019-03-25T19:54:29.272Z,1.30
2019-03-25T19:56:59.063Z,1.40
2019-03-25T19:59:28.753Z,1.30
2019-03-25T20:01:58.530Z,1.30
2019-03-25T20:04:28.461Z,1.10
2019-03-25T20:06:58.288Z,1.07
2019-03-25T20:09:28.310Z,1.23
2019-03-25T20:11:58.250Z,1.20
2019-03-25T20:14:28.075Z,1.30
2019-03-25T20:16:57.970Z,1.20
2019-03-25T20:19:27.826Z,1.13
2019-03-25T20:21:57.575Z,1.70
2019-03-25T20:24:27.365Z,1.40
2019-03-25T20:26:57.121Z,1.43
2019-03-25T20:29:27.050Z,1.70
2019-03-25T20:31:56.839Z,1.57
2019-03-25T20:34:26.598Z,1.20
2019-03-25T20:36:56.207Z,1.87
2019-03-25T20:39:26.002Z,1.60
2019-03-25T20:41:55.720Z,1.30
2019-03-25T20:44:25.491Z,1.27
2019-03-25T20:46:55.125Z,1.40
2019-03-25T20:49:24.972Z,1.37
2019-03-25T20:51:55.092Z,1.40
2019-03-25T20:54:25.205Z,1.30
2019-03-25T20:56:55.043Z,1.40
2019-03-25T20:59:24.751Z,1.50
2019-03-25T21:01:55.128Z,1.50
2019-03-25T21:04:25.278Z,1.47
2019-03-25T21:06:55.546Z,1.40
2019-03-25T21:09:25.207Z,1.60
2019-03-25T21:11:55.287Z,1.33
2019-03-25T21:14:25.098Z,1.50
2019-03-25T21:16:54.754Z,1.47
2019-03-25T21:19:24.646Z,1.43
2019-03-25T21:21:54.677Z,1.20
2019-03-25T21:24:24.472Z,1.37
2019-03-25T21:26:54.386Z,1.50
2019-03-25T21:29:24.121Z,1.53
2019-03-25T21:31:54.072Z,1.60
2019-03-25T21:34:23.962Z,1.60
2019-03-25T21:36:53.656Z,1.40
2019-03-25T21:39:23.542Z,1.20
2019-03-25T21:41:53.234Z,1.33
2019-03-25T21:44:23.279Z,1.40
2019-03-25T21:46:52.951Z,1.33
2019-03-25T21:49:22.946Z,1.30
2019-03-25T21:51:52.785Z,1.47
2019-03-25T21:54:22.543Z,1.23
2019-03-25T21:56:52.331Z,1.30
2019-03-25T21:59:22.168Z,1.27
2019-03-25T22:01:52.082Z,1.60
2019-03-25T22:04:21.935Z,1.33
2019-03-25T22:06:51.622Z,1.20
2019-03-25T22:09:21.446Z,1.40
2019-03-25T22:11:51.063Z,1.30
2019-03-25T22:14:21.025Z,1.50
2019-03-25T22:16:50.872Z,1.20
2019-03-25T22:19:21.074Z,1.10
2019-03-25T22:21:50.820Z,1.20
2019-03-25T22:24:20.620Z,1.20
2019-03-25T22:26:50.488Z,1.47
2019-03-25T22:29:21.198Z,1.10
2019-03-25T22:31:50.972Z,1.23
2019-03-25T22:34:20.816Z,1.20
2019-03-25T22:36:50.465Z,1.03
2019-03-25T22:39:20.168Z,1.20
2019-03-25T22:41:49.999Z,1.30
2019-03-25T22:44:19.780Z,1.40
2019-03-25T22:46:49.604Z,1.23
2019-03-25T22:49:19.579Z,1.30
2019-03-25T22:51:49.500Z,1.50
2019-03-25T22:54:19.101Z,1.40
2019-03-25T22:56:48.816Z,1.00
2019-03-25T22:59:18.555Z,1.40
2019-03-25T23:01:48.648Z,1.40
2019-03-25T23:04:18.422Z,1.13
2019-03-25T23:06:48.123Z,1.13
2019-03-25T23:09:18.213Z,1.33
2019-03-25T23:11:47.815Z,1.50
2019-03-25T23:14:17.456Z,1.33
2019-03-25T23:16:47.149Z,1.23
2019-03-25T23:19:16.961Z,1.50
2019-03-25T23:21:46.690Z,1.20
2019-03-25T23:24:16.298Z,1.30
2019-03-25T23:26:46.016Z,1.40
2019-03-25T23:29:15.634Z,1.30
2019-03-25T23:31:45.245Z,1.20
2019-03-25T23:34:14.944Z,1.20
2019-03-25T23:36:44.641Z,1.30
2019-03-25T23:39:14.283Z,1.03
2019-03-25T23:41:43.933Z,1.40
2019-03-25T23:44:13.558Z,1.20
2019-03-25T23:46:43.196Z,1.40
2019-03-25T23:49:12.948Z,1.27
2019-03-25T23:51:42.652Z,1.30
2019-03-25T23:54:12.897Z,1.37
2019-03-25T23:56:42.644Z,1.40
2019-03-25T23:59:12.416Z,1.50
